createdAt,value
2023-01-02T00:00:43.419Z,3.55
2023-01-02T00:03:13.123Z,3.22
2023-01-02T00:05:39.791Z,2.78
2023-01-02T00:08:06.387Z,3.13
2023-01-02T00:10:32.990Z,3.63
2023-01-02T00:13:01.819Z,4.68
2023-01-02T00:15:28.497Z,4.30
2023-01-02T00:17:59.996Z,4.07
2023-01-02T00:20:28.864Z,4.27
2023-01-02T00:22:55.421Z,4.00
2023-01-02T00:25:24.143Z,3.78
2023-01-02T00:27:50.816Z,3.65
2023-01-02T00:30:19.708Z,3.42
2023-01-02T00:32:48.480Z,4.13
2023-01-02T00:35:19.882Z,3.80
2023-01-02T00:37:48.693Z,3.67
2023-01-02T00:40:15.346Z,3.90
2023-01-02T00:42:45.618Z,3.85
2023-01-02T00:45:14.534Z,3.47
2023-01-02T00:47:41.106Z,3.70
2023-01-02T00:50:07.770Z,3.80
2023-01-02T00:52:34.345Z,3.65
2023-01-02T00:55:02.965Z,4.00
2023-01-02T00:57:31.899Z,3.80
2023-01-02T00:59:58.561Z,4.38
2023-01-02T01:02:25.264Z,4.50
2023-01-02T01:04:59.196Z,4.15
2023-01-02T01:07:29.286Z,3.65
2023-01-02T01:09:57.935Z,3.53
2023-01-02T01:12:24.536Z,3.33
2023-01-02T01:14:51.107Z,5.00
2023-01-02T01:17:17.706Z,3.90
2023-01-02T01:19:44.337Z,3.60
2023-01-02T01:22:13.404Z,3.20
2023-01-02T01:24:39.951Z,3.42
2023-01-02T01:27:09.225Z,3.80
2023-01-02T01:29:38.821Z,3.50
2023-01-02T01:32:05.410Z,3.17
2023-01-02T01:34:34.126Z,3.20
2023-01-02T01:37:03.019Z,3.60
2023-01-02T01:39:31.938Z,3.42
2023-01-02T01:42:04.402Z,3.60
2023-01-02T01:44:57.364Z,3.65
2023-01-02T01:47:23.888Z,3.30
2023-01-02T01:50:17.237Z,3.88
2023-01-02T01:53:10.037Z,3.50
2023-01-02T01:55:49.080Z,4.13
2023-01-02T01:58:23.896Z,4.93
2023-01-02T02:00:51.586Z,3.50
2023-01-02T02:03:24.565Z,3.50
2023-01-02T02:05:51.256Z,3.53
2023-01-02T02:08:26.865Z,3.92
2023-01-02T02:10:55.279Z,3.80
2023-01-02T02:13:24.454Z,4.20
2023-01-02T02:16:15.313Z,3.70
2023-01-02T02:19:12.536Z,4.15
2023-01-02T02:22:06.956Z,4.40
2023-01-02T02:24:59.899Z,3.72
2023-01-02T02:27:38.579Z,4.33
2023-01-02T02:30:14.105Z,4.20
2023-01-02T02:33:18.482Z,3.85
2023-01-02T02:36:08.264Z,3.45
2023-01-02T02:39:15.911Z,3.63
2023-01-02T02:41:46.578Z,4.30
2023-01-02T02:44:32.934Z,3.80
2023-01-02T02:47:40.869Z,3.80
2023-01-02T02:50:35.347Z,4.00
2023-01-02T02:53:05.658Z,3.50
2023-01-02T02:55:48.476Z,3.40
2023-01-02T02:58:22.277Z,3.60
2023-01-02T03:00:51.252Z,3.85
2023-01-02T03:03:22.996Z,3.95
2023-01-02T03:06:02.565Z,4.03
2023-01-02T03:08:38.848Z,3.77
2023-01-02T03:11:05.758Z,4.32
2023-01-02T03:14:05.943Z,3.97
2023-01-02T03:16:41.642Z,3.90
2023-01-02T03:19:13.558Z,4.00
2023-01-02T03:21:46.643Z,4.17
2023-01-02T03:24:21.294Z,3.20
2023-01-02T03:26:53.844Z,3.55
2023-01-02T03:29:28.858Z,3.17
2023-01-02T03:31:56.438Z,4.00
2023-01-02T03:34:34.841Z,3.97
2023-01-02T03:37:06.774Z,3.75
2023-01-02T03:39:43.335Z,3.72
2023-01-02T03:42:21.161Z,2.95
2023-01-02T03:44:55.855Z,3.05
2023-01-02T03:47:46.921Z,3.70
2023-01-02T03:50:25.260Z,3.97
2023-01-02T03:52:51.898Z,3.38
2023-01-02T03:55:18.780Z,4.28
2023-01-02T03:57:57.058Z,4.10
2023-01-02T04:00:37.234Z,3.80
2023-01-02T04:03:20.663Z,4.07
2023-01-02T04:05:57.938Z,4.43
2023-01-02T04:08:24.412Z,3.60
2023-01-02T04:10:58.706Z,4.20
2023-01-02T04:13:35.036Z,4.30
2023-01-02T04:16:07.679Z,4.07
2023-01-02T04:18:46.658Z,4.63
2023-01-02T04:21:21.725Z,4.63
2023-01-02T04:23:58.086Z,4.80
2023-01-02T04:26:31.715Z,4.50
2023-01-02T04:28:58.591Z,5.20
2023-01-02T04:31:43.831Z,4.65
2023-01-02T04:34:21.258Z,5.57
2023-01-02T04:36:47.834Z,4.57
2023-01-02T04:39:16.671Z,3.70
2023-01-02T04:41:43.384Z,4.10
2023-01-02T04:44:09.923Z,4.07
2023-01-02T04:46:36.596Z,4.47
2023-01-02T04:49:03.345Z,4.25
2023-01-02T04:51:29.955Z,3.80
2023-01-02T04:53:58.797Z,4.53
2023-01-02T04:56:27.603Z,4.07
2023-01-02T04:58:56.389Z,4.18
2023-01-02T05:01:27.907Z,3.85
2023-01-02T05:03:54.617Z,3.80
2023-01-02T05:06:21.273Z,4.00
2023-01-02T05:08:55.109Z,3.80
2023-01-02T05:11:21.699Z,3.55
2023-01-02T05:13:53.241Z,3.83
2023-01-02T05:16:19.805Z,3.97
2023-01-02T05:18:51.111Z,4.15
2023-01-02T05:21:36.312Z,4.18
2023-01-02T05:24:04.148Z,4.22
2023-01-02T05:26:35.749Z,4.30
2023-01-02T05:29:02.611Z,3.60
2023-01-02T05:31:29.255Z,3.90
2023-01-02T05:33:57.499Z,3.83
2023-01-02T05:36:27.658Z,4.25
2023-01-02T05:38:57.130Z,4.00
2023-01-02T05:41:26.412Z,3.70
2023-01-02T05:43:56.857Z,3.40
2023-01-02T05:46:23.608Z,3.72
2023-01-02T05:48:50.383Z,3.20
2023-01-02T05:51:20.642Z,3.38
2023-01-02T05:53:50.953Z,3.40
2023-01-02T05:56:21.555Z,3.03
2023-01-02T05:58:51.831Z,3.78
2023-01-02T06:01:30.054Z,4.05
2023-01-02T06:04:01.172Z,3.53
2023-01-02T06:06:33.729Z,3.57
2023-01-02T06:09:01.384Z,3.45
2023-01-02T06:11:31.114Z,3.83
2023-01-02T06:13:58.104Z,3.50
2023-01-02T06:16:25.034Z,3.47
2023-01-02T06:18:52.552Z,3.70
2023-01-02T06:21:24.944Z,3.60
2023-01-02T06:23:57.504Z,3.40
2023-01-02T06:26:34.207Z,3.60
2023-01-02T06:29:01.887Z,3.47
2023-01-02T06:31:29.833Z,3.10
2023-01-02T06:34:04.095Z,3.55
2023-01-02T06:36:33.415Z,3.88
2023-01-02T06:39:00.108Z,3.63
2023-01-02T06:41:27.053Z,3.85
2023-01-02T06:43:53.696Z,3.30
2023-01-02T06:46:22.845Z,4.00
2023-01-02T06:48:56.405Z,4.38
2023-01-02T06:51:25.281Z,3.78
2023-01-02T06:53:52.067Z,3.65
2023-01-02T06:56:20.190Z,3.67
2023-01-02T06:58:47.343Z,3.85
2023-01-02T07:01:20.437Z,3.80
2023-01-02T07:03:50.442Z,3.17
2023-01-02T07:06:23.569Z,3.00
2023-01-02T07:08:52.677Z,3.03
2023-01-02T07:11:22.008Z,2.97
2023-01-02T07:13:53.121Z,3.58
2023-01-02T07:16:23.507Z,3.08
2023-01-02T07:18:55.732Z,3.65
2023-01-02T07:21:24.768Z,5.37
2023-01-02T07:23:53.576Z,5.25
2023-01-02T07:26:22.652Z,5.13
2023-01-02T07:28:51.653Z,2.92
2023-01-02T07:31:19.806Z,3.05
2023-01-02T07:33:54.146Z,3.33
2023-01-02T07:36:24.302Z,3.25
2023-01-02T07:38:57.903Z,3.47
2023-01-02T07:41:25.991Z,4.30
2023-01-02T07:43:56.584Z,4.07
2023-01-02T07:46:24.145Z,3.70
2023-01-02T07:48:51.005Z,3.50
2023-01-02T07:51:26.293Z,2.63
2023-01-02T07:53:55.754Z,3.15
2023-01-02T07:56:22.330Z,3.10
2023-01-02T07:58:49.111Z,3.03
2023-01-02T08:01:15.896Z,3.17
2023-01-02T08:03:42.646Z,3.08
2023-01-02T08:06:17.797Z,2.95
2023-01-02T08:08:50.126Z,3.78
2023-01-02T08:11:19.667Z,3.20
2023-01-02T08:13:48.864Z,3.58
2023-01-02T08:16:20.940Z,3.10
2023-01-02T08:18:51.448Z,3.33
2023-01-02T08:21:20.847Z,3.15
2023-01-02T08:23:47.617Z,2.90
2023-01-02T08:26:14.185Z,3.28
2023-01-02T08:28:44.512Z,3.75
2023-01-02T08:31:19.676Z,3.15
2023-01-02T08:33:46.835Z,3.28
2023-01-02T08:36:14.930Z,3.07
2023-01-02T08:38:41.709Z,3.25
2023-01-02T08:41:10.810Z,3.70
2023-01-02T08:43:38.262Z,3.15
2023-01-02T08:46:06.670Z,3.47
2023-01-02T08:48:34.441Z,3.33
2023-01-02T08:51:01.285Z,3.67
2023-01-02T08:53:28.012Z,3.45
2023-01-02T08:56:20.125Z,3.55
2023-01-02T08:58:58.623Z,3.58
2023-01-02T09:01:29.928Z,3.20
2023-01-02T09:04:09.557Z,3.90
2023-01-02T09:06:38.921Z,3.78
2023-01-02T09:09:11.938Z,3.92
2023-01-02T09:11:43.075Z,3.67
2023-01-02T09:14:14.139Z,3.97
2023-01-02T09:16:43.054Z,3.78
2023-01-02T09:19:14.548Z,4.03
2023-01-02T09:21:43.357Z,3.72
2023-01-02T09:24:10.271Z,3.88
2023-01-02T09:26:41.832Z,4.13
2023-01-02T09:29:12.346Z,3.95
2023-01-02T09:31:41.305Z,4.32
2023-01-02T09:34:08.017Z,3.50
2023-01-02T09:36:34.600Z,3.92
2023-01-02T09:39:04.460Z,4.37
2023-01-02T09:41:39.169Z,3.85
2023-01-02T09:44:21.180Z,3.70
2023-01-02T09:47:02.666Z,4.15
2023-01-02T09:49:35.317Z,4.10
2023-01-02T09:52:07.413Z,3.07
2023-01-02T09:54:34.491Z,4.00
2023-01-02T09:57:27.504Z,3.63
2023-01-02T10:00:22.998Z,3.92
2023-01-02T10:03:01.563Z,3.78
2023-01-02T10:05:41.278Z,4.27
2023-01-02T10:08:10.622Z,3.80
2023-01-02T10:10:43.225Z,3.63
2023-01-02T10:13:16.032Z,3.50
2023-01-02T10:15:48.615Z,3.22
2023-01-02T10:18:24.762Z,2.87
2023-01-02T10:20:58.744Z,3.10
2023-01-02T10:23:30.399Z,3.28
2023-01-02T10:26:07.685Z,2.90
2023-01-02T10:28:46.460Z,2.95
2023-01-02T10:31:19.447Z,2.80
2023-01-02T10:34:01.335Z,2.92
2023-01-02T10:36:31.290Z,2.78
2023-01-02T10:39:03.719Z,2.60
2023-01-02T10:41:33.942Z,2.80
2023-01-02T10:44:10.777Z,3.00
2023-01-02T10:46:40.658Z,3.13
2023-01-02T10:49:14.567Z,3.15
2023-01-02T10:51:50.964Z,4.25
2023-01-02T10:54:17.652Z,3.00
2023-01-02T10:56:54.987Z,3.10
2023-01-02T10:59:28.995Z,2.75
2023-01-02T11:01:58.039Z,2.60
2023-01-02T11:04:30.159Z,3.63
2023-01-02T11:07:04.922Z,2.75
2023-01-02T11:09:34.353Z,2.90
2023-01-02T11:12:10.544Z,2.80
2023-01-02T11:14:37.908Z,2.80
2023-01-02T11:17:06.691Z,3.15
2023-01-02T11:19:41.723Z,3.15
2023-01-02T11:22:12.782Z,3.60
2023-01-02T11:25:00.464Z,3.28
2023-01-02T11:27:44.565Z,2.70
2023-01-02T11:30:45.155Z,3.05
2023-01-02T11:33:14.427Z,2.50
2023-01-02T11:35:58.103Z,2.60
2023-01-02T11:38:30.967Z,2.83
2023-01-02T11:41:02.735Z,2.30
2023-01-02T11:43:50.228Z,2.30
2023-01-02T11:46:33.343Z,2.20
2023-01-02T11:49:12.655Z,2.47
2023-01-02T11:51:44.304Z,2.42
2023-01-02T11:54:19.845Z,2.38
2023-01-02T11:56:51.212Z,2.90
2023-01-02T11:59:23.139Z,2.35
2023-01-02T12:01:55.776Z,2.10
2023-01-02T12:04:23.387Z,2.80
2023-01-02T12:07:12.726Z,2.10
2023-01-02T12:10:05.930Z,2.15
2023-01-02T12:13:06.290Z,2.20
2023-01-02T12:15:57.630Z,2.30
2023-01-02T12:18:27.101Z,2.30
2023-01-02T12:21:33.640Z,1.90
2023-01-02T12:24:21.885Z,1.80
2023-01-02T12:27:13.162Z,2.28
2023-01-02T12:30:04.534Z,1.63
2023-01-02T12:32:49.178Z,1.80
2023-01-02T12:35:46.941Z,1.60
2023-01-02T12:38:33.049Z,1.50
2023-01-02T12:41:33.639Z,1.80
2023-01-02T12:44:33.952Z,1.60
2023-01-02T12:47:30.441Z,1.63
2023-01-02T12:50:30.467Z,1.13
2023-01-02T12:53:15.610Z,1.48
2023-01-02T12:55:53.334Z,1.58
2023-01-02T12:58:28.697Z,1.37
2023-01-02T13:01:04.360Z,1.30
2023-01-02T13:03:58.702Z,1.35
2023-01-02T13:06:44.565Z,1.15
2023-01-02T13:09:18.322Z,1.33
2023-01-02T13:11:55.634Z,1.43
2023-01-02T13:14:37.388Z,2.08
2023-01-02T13:17:12.735Z,1.25
2023-01-02T13:19:51.196Z,1.20
2023-01-02T13:22:45.422Z,1.50
2023-01-02T13:25:21.073Z,1.00
2023-01-02T13:27:49.434Z,1.27
2023-01-02T13:30:34.604Z,1.20
2023-01-02T13:33:04.046Z,2.25
2023-01-02T13:35:38.255Z,1.98
2023-01-02T13:38:09.567Z,1.63
2023-01-02T13:40:36.392Z,1.50
2023-01-02T13:43:06.631Z,1.17
2023-01-02T13:45:50.059Z,1.35
2023-01-02T13:48:22.773Z,1.17
2023-01-02T13:51:00.333Z,1.73
2023-01-02T13:53:35.557Z,1.25
2023-01-02T13:56:08.242Z,1.38
2023-01-02T13:58:44.092Z,1.30
2023-01-02T14:01:39.804Z,1.10
2023-01-02T14:04:22.675Z,1.47
2023-01-02T14:06:53.786Z,1.20
2023-01-02T14:09:22.803Z,1.30
2023-01-02T14:11:56.598Z,1.10
2023-01-02T14:14:46.669Z,1.25
2023-01-02T14:17:32.390Z,1.33
2023-01-02T14:20:17.385Z,1.17
2023-01-02T14:22:51.027Z,1.10
2023-01-02T14:25:18.454Z,1.25
2023-01-02T14:27:52.113Z,1.00
2023-01-02T14:30:29.810Z,0.93
2023-01-02T14:32:58.476Z,1.38
2023-01-02T14:35:34.373Z,1.08
2023-01-02T14:38:23.288Z,1.05
2023-01-02T14:40:53.058Z,0.82
2023-01-02T14:43:30.875Z,1.07
2023-01-02T14:46:06.793Z,1.00
2023-01-02T14:48:51.828Z,1.20
2023-01-02T14:51:36.774Z,1.00
2023-01-02T14:54:27.808Z,1.10
2023-01-02T14:57:00.860Z,1.40
2023-01-02T14:59:33.614Z,1.20
2023-01-02T15:02:06.812Z,1.00
2023-01-02T15:04:45.888Z,1.27
2023-01-02T15:07:39.879Z,1.20
2023-01-02T15:10:21.378Z,1.10
2023-01-02T15:13:03.902Z,0.90
2023-01-02T15:15:47.704Z,1.25
2023-01-02T15:18:34.356Z,1.10
2023-01-02T15:21:09.025Z,1.40
2023-01-02T15:23:37.341Z,1.10
2023-01-02T15:26:32.861Z,1.17
2023-01-02T15:29:18.469Z,1.23
2023-01-02T15:31:57.974Z,1.40
2023-01-02T15:34:34.064Z,1.50
2023-01-02T15:37:07.649Z,1.30
2023-01-02T15:39:38.389Z,1.30
2023-01-02T15:42:26.360Z,2.08
2023-01-02T15:45:11.463Z,1.20
2023-01-02T15:47:43.058Z,1.50
2023-01-02T15:50:21.082Z,1.27
2023-01-02T15:52:54.699Z,1.17
2023-01-02T15:55:21.367Z,1.55
2023-01-02T15:57:56.558Z,1.65
2023-01-02T16:00:40.046Z,1.38
2023-01-02T16:03:07.800Z,1.50
2023-01-02T16:05:53.102Z,1.42
2023-01-02T16:08:22.625Z,2.10
2023-01-02T16:11:01.487Z,1.73
2023-01-02T16:13:50.674Z,1.85
2023-01-02T16:16:19.911Z,1.60
2023-01-02T16:18:58.180Z,1.30
2023-01-02T16:21:30.690Z,1.20
2023-01-02T16:24:00.059Z,1.50
2023-01-02T16:26:39.666Z,1.55
2023-01-02T16:29:17.699Z,1.93
2023-01-02T16:31:55.582Z,1.98
2023-01-02T16:34:57.955Z,3.10
2023-01-02T16:37:35.832Z,3.40
2023-01-02T16:41:00.752Z,3.50
2023-01-02T16:43:15.539Z,3.03
2023-01-02T16:45:42.558Z,2.10
2023-01-02T16:48:14.716Z,1.65
2023-01-02T16:50:44.476Z,1.58
2023-01-02T16:53:18.723Z,1.70
2023-01-02T16:55:45.730Z,1.40
2023-01-02T16:58:14.678Z,1.30
2023-01-02T17:00:43.754Z,2.88
2023-01-02T17:03:26.408Z,2.10
2023-01-02T17:06:02.141Z,1.60
2023-01-02T17:08:34.701Z,1.23
2023-01-02T17:11:04.923Z,1.55
2023-01-02T17:13:31.567Z,1.60
2023-01-02T17:16:01.187Z,3.30
2023-01-02T17:18:27.820Z,9.43
2023-01-02T17:20:54.457Z,4.03
2023-01-02T17:23:21.361Z,5.18
2023-01-02T17:25:50.279Z,2.00
2023-01-02T17:28:16.881Z,1.63
2023-01-02T17:30:45.457Z,2.20
2023-01-02T17:33:12.349Z,4.93
2023-01-02T17:35:39.093Z,3.22
2023-01-02T17:38:08.059Z,4.32
2023-01-02T17:40:34.775Z,3.70
2023-01-02T17:43:01.432Z,1.40
2023-01-02T17:45:30.305Z,1.77
2023-01-02T17:48:02.554Z,1.40
2023-01-02T17:50:32.510Z,1.20
2023-01-02T17:52:59.861Z,1.20
2023-01-02T17:55:26.624Z,1.30
2023-01-02T17:57:53.483Z,1.47
2023-01-02T18:00:24.041Z,1.40
2023-01-02T18:02:54.933Z,1.48
2023-01-02T18:05:22.458Z,1.45
2023-01-02T18:07:49.148Z,1.30
2023-01-02T18:10:20.142Z,1.27
2023-01-02T18:12:47.507Z,1.55
2023-01-02T18:15:15.828Z,1.15
2023-01-02T18:17:42.834Z,0.88
2023-01-02T18:20:15.809Z,1.40
2023-01-02T18:22:48.879Z,1.03
2023-01-02T18:25:24.507Z,1.13
2023-01-02T18:27:51.372Z,1.05
2023-01-02T18:30:22.586Z,1.00
2023-01-02T18:32:54.862Z,0.90
2023-01-02T18:38:23.034Z,1.00
2023-01-02T18:40:49.797Z,1.10
2023-01-02T18:43:26.313Z,0.82
2023-01-02T18:45:57.737Z,1.10
2023-01-02T18:48:24.515Z,1.40
2023-01-02T18:51:00.130Z,0.90
2023-01-02T18:53:31.000Z,0.90
2023-01-02T18:56:02.235Z,1.30
2023-01-02T18:58:31.637Z,1.40
2023-01-02T19:01:06.488Z,0.90
2023-01-02T19:03:33.841Z,5.32
2023-01-02T19:06:02.829Z,4.80
2023-01-02T19:08:37.580Z,3.22
2023-01-02T19:11:36.513Z,3.08
2023-01-02T19:14:38.544Z,3.27
2023-01-02T19:17:18.705Z,2.70
2023-01-02T19:19:45.959Z,3.70
2023-01-02T19:22:19.399Z,3.70
2023-01-02T19:24:46.166Z,3.83
2023-01-02T19:27:23.796Z,1.43
2023-01-02T19:29:53.915Z,0.82
2023-01-02T19:32:28.153Z,2.45
2023-01-02T19:35:02.471Z,2.92
2023-01-02T19:37:40.694Z,1.40
2023-01-02T19:40:22.098Z,0.60
2023-01-02T19:42:53.280Z,0.80
2023-01-02T19:45:25.442Z,1.15
2023-01-02T19:47:54.825Z,0.70
2023-01-02T19:50:26.375Z,0.70
2023-01-02T19:52:57.746Z,0.70
2023-01-02T19:55:24.411Z,2.00
2023-01-02T19:57:51.179Z,1.02
2023-01-02T20:00:21.660Z,1.17
2023-01-02T20:02:52.383Z,0.90
2023-01-02T20:05:25.140Z,1.20
2023-01-02T20:07:55.780Z,1.00
2023-01-02T20:10:25.067Z,0.90
2023-01-02T20:12:52.040Z,1.30
2023-01-02T20:15:23.711Z,0.82
2023-01-02T20:17:51.578Z,1.00
2023-01-02T20:20:26.109Z,0.90
2023-01-02T20:22:52.863Z,0.93
2023-01-02T20:25:24.103Z,0.80
2023-01-02T20:27:56.512Z,0.82
2023-01-02T20:30:26.495Z,0.83
2023-01-02T20:32:56.334Z,0.90
2023-01-02T20:35:23.007Z,0.70
2023-01-02T20:37:52.026Z,0.80
2023-01-02T20:40:18.720Z,0.75
2023-01-02T20:42:47.896Z,0.93
2023-01-02T20:45:19.077Z,0.70
2023-01-02T20:47:50.421Z,1.05
2023-01-02T20:50:19.547Z,0.90
2023-01-02T20:52:52.086Z,1.00
2023-01-02T20:55:25.619Z,0.80
2023-01-02T20:57:53.397Z,0.90
2023-01-02T21:00:20.589Z,1.00
2023-01-02T21:02:50.700Z,0.93
2023-01-02T21:05:17.474Z,0.80
2023-01-02T21:07:44.038Z,1.20
2023-01-02T21:10:12.853Z,1.23
2023-01-02T21:13:00.541Z,1.08
2023-01-02T21:15:42.421Z,1.10
2023-01-02T21:18:09.885Z,1.58
2023-01-02T21:20:39.872Z,1.60
2023-01-02T21:23:10.013Z,1.75
2023-01-02T21:25:42.329Z,1.65
2023-01-02T21:28:12.524Z,2.20
2023-01-02T21:30:43.663Z,1.77
2023-01-02T21:33:16.041Z,2.00
2023-01-02T21:35:43.245Z,2.20
2023-01-02T21:38:10.586Z,2.53
2023-01-02T21:40:37.529Z,2.13
2023-01-02T21:43:06.338Z,1.85
2023-01-02T21:45:32.880Z,2.10
2023-01-02T21:47:59.612Z,2.00
2023-01-02T21:50:26.951Z,1.80
2023-01-02T21:52:54.008Z,1.60
2023-01-02T21:55:24.949Z,1.00
2023-01-02T22:00:43.661Z,1.15
2023-01-02T22:03:10.749Z,1.10
2023-01-02T22:05:38.112Z,0.82
2023-01-02T22:08:04.920Z,0.60
2023-01-02T22:10:31.546Z,0.47
2023-01-02T22:13:00.566Z,0.57
2023-01-02T22:15:36.031Z,0.52
2023-01-02T22:18:02.814Z,0.40
2023-01-02T22:20:32.280Z,0.40
2023-01-02T22:22:59.059Z,0.60
2023-01-02T22:25:25.790Z,0.40
2023-01-02T22:27:54.641Z,0.40
2023-01-02T22:30:31.477Z,0.30
2023-01-02T22:33:00.605Z,0.30
2023-01-02T22:35:27.851Z,0.30
2023-01-02T22:37:54.614Z,0.30
2023-01-02T22:40:21.306Z,0.22
2023-01-02T22:43:03.462Z,0.40
2023-01-02T22:45:42.575Z,0.30
2023-01-02T22:48:17.017Z,0.40
2023-01-02T22:50:47.919Z,0.30
2023-01-02T22:53:28.282Z,0.38
2023-01-02T22:55:55.244Z,0.30
2023-01-02T22:58:25.023Z,0.30
2023-01-02T23:01:06.009Z,0.30
2023-01-02T23:03:38.650Z,0.30
2023-01-02T23:06:07.694Z,0.40
2023-01-02T23:08:34.721Z,0.30
2023-01-02T23:11:01.342Z,0.30
2023-01-02T23:13:28.093Z,0.20
2023-01-02T23:16:13.427Z,0.30
2023-01-02T23:18:59.132Z,0.30
2023-01-02T23:21:29.664Z,0.30
2023-01-02T23:23:56.243Z,0.30
2023-01-02T23:26:25.898Z,0.37
2023-01-02T23:29:06.390Z,0.30
2023-01-02T23:31:35.013Z,0.30
2023-01-02T23:34:01.590Z,0.30
2023-01-02T23:36:28.239Z,0.30
2023-01-02T23:38:57.228Z,0.40
2023-01-02T23:41:23.927Z,0.30
2023-01-02T23:43:52.767Z,0.30
2023-01-02T23:46:24.125Z,0.30
2023-01-02T23:48:53.199Z,0.30
2023-01-02T23:51:23.246Z,0.30
2023-01-02T23:53:49.931Z,0.20
2023-01-02T23:56:26.817Z,0.20
2023-01-02T23:59:00.668Z,0.30
